createdAt,value
2023-09-13T00:00:21.749Z,1001.92
2023-09-13T00:01:21.830Z,1001.86
2023-09-13T00:02:21.798Z,1001.94
2023-09-13T00:03:21.859Z,1001.90
2023-09-13T00:04:21.775Z,1001.88
2023-09-13T00:05:21.726Z,1001.93
2023-09-13T00:06:21.676Z,1001.92
2023-09-13T00:07:21.700Z,1001.97
2023-09-13T00:08:21.659Z,1001.98
2023-09-13T00:09:21.664Z,1001.99
2023-09-13T00:10:21.653Z,1002.02
2023-09-13T00:11:21.649Z,1001.99
2023-09-13T00:12:21.617Z,1002.01
2023-09-13T00:13:21.601Z,1001.99
2023-09-13T00:14:21.614Z,1002.01
2023-09-13T00:15:21.561Z,1001.98
2023-09-13T00:16:21.606Z,1002.04
2023-09-13T00:17:21.566Z,1002.01
2023-09-13T00:18:21.542Z,1002.04
2023-09-13T00:19:21.749Z,1002.06
2023-09-13T00:20:21.511Z,1002.07
2023-09-13T00:21:21.506Z,1002.13
2023-09-13T00:22:21.554Z,1002.15
2023-09-13T00:23:21.502Z,1002.18
2023-09-13T00:24:21.487Z,1002.21
2023-09-13T00:25:21.542Z,1002.25
2023-09-13T00:26:21.478Z,1002.33
2023-09-13T00:27:21.457Z,1002.30
2023-09-13T00:28:21.481Z,1002.39
2023-09-13T00:29:21.428Z,1002.37
2023-09-13T00:30:21.437Z,1002.41
2023-09-13T00:31:21.504Z,1002.41
2023-09-13T00:32:21.400Z,1002.43
2023-09-13T00:33:21.383Z,1002.42
2023-09-13T00:34:21.467Z,1002.43
2023-09-13T00:35:21.358Z,1002.42
2023-09-13T00:36:21.371Z,1002.45
2023-09-13T00:37:21.378Z,1002.45
2023-09-13T00:38:21.347Z,1002.45
2023-09-13T00:39:21.331Z,1002.47
2023-09-13T00:40:21.387Z,1002.49
2023-09-13T00:41:21.290Z,1002.53
2023-09-13T00:42:21.302Z,1002.58
2023-09-13T00:43:21.304Z,1002.52
2023-09-13T00:44:21.280Z,1002.52
2023-09-13T00:45:21.248Z,1002.56
2023-09-13T00:46:21.371Z,1002.53
2023-09-13T00:47:21.279Z,1002.53
2023-09-13T00:48:21.327Z,1002.54
2023-09-13T00:49:21.233Z,1002.50
2023-09-13T00:50:21.271Z,1002.52
2023-09-13T00:51:21.216Z,1002.51
2023-09-13T00:52:21.281Z,1002.49
2023-09-13T00:53:21.195Z,1002.49
2023-09-13T00:54:21.171Z,1002.52
2023-09-13T00:55:21.260Z,1002.51
2023-09-13T00:56:21.183Z,1002.56
2023-09-13T00:57:21.167Z,1002.59
2023-09-13T00:58:21.178Z,1002.61
2023-09-13T00:59:21.128Z,1002.60
2023-09-13T01:00:21.135Z,1002.55
2023-09-13T01:01:21.122Z,1002.62
2023-09-13T01:02:21.113Z,1002.65
2023-09-13T01:03:21.211Z,1002.61
2023-09-13T01:04:21.125Z,1002.66
2023-09-13T01:05:21.096Z,1002.64
2023-09-13T01:06:21.054Z,1002.68
2023-09-13T01:07:21.077Z,1002.67
2023-09-13T01:08:21.026Z,1002.70
2023-09-13T01:09:20.995Z,1002.68
2023-09-13T01:10:21.112Z,1002.71
2023-09-13T01:11:21.009Z,1002.71
2023-09-13T01:12:21.029Z,1002.73
2023-09-13T01:13:21.052Z,1002.74
2023-09-13T01:14:20.962Z,1002.70
2023-09-13T01:15:20.958Z,1002.74
2023-09-13T01:16:21.063Z,1002.75
2023-09-13T01:17:20.979Z,1002.75
2023-09-13T01:18:20.952Z,1002.74
2023-09-13T01:19:20.978Z,1002.76
2023-09-13T01:20:20.888Z,1002.75
2023-09-13T01:21:20.896Z,1002.82
2023-09-13T01:22:20.904Z,1002.82
2023-09-13T01:23:20.875Z,1002.83
2023-09-13T01:24:20.881Z,1002.85
2023-09-13T01:25:20.859Z,1002.88
2023-09-13T01:26:20.869Z,1002.87
2023-09-13T01:27:20.785Z,1002.92
2023-09-13T01:28:20.817Z,1002.88
2023-09-13T01:29:20.797Z,1002.88
2023-09-13T01:30:20.811Z,1002.94
2023-09-13T01:31:20.817Z,1002.94
2023-09-13T01:32:20.882Z,1002.93
2023-09-13T01:33:20.740Z,1002.98
2023-09-13T01:34:20.791Z,1003.00
2023-09-13T01:35:20.734Z,1003.01
2023-09-13T01:36:20.916Z,1003.00
2023-09-13T01:37:20.822Z,1002.99
2023-09-13T01:38:20.712Z,1002.99
2023-09-13T01:39:20.678Z,1003.00
2023-09-13T01:40:20.735Z,1002.98
2023-09-13T01:41:20.680Z,1003.01
2023-09-13T01:42:20.692Z,1002.97
2023-09-13T01:43:20.703Z,1002.97
2023-09-13T01:44:20.659Z,1003.02
2023-09-13T01:45:20.671Z,1002.94
2023-09-13T01:46:20.710Z,1002.93
2023-09-13T01:47:20.581Z,1002.92
2023-09-13T01:48:20.572Z,1002.88
2023-09-13T01:49:20.646Z,1002.86
2023-09-13T01:50:20.574Z,1002.85
2023-09-13T01:51:20.563Z,1002.80
2023-09-13T01:52:20.602Z,1002.82
2023-09-13T01:53:20.542Z,1002.79
2023-09-13T01:54:20.565Z,1002.69
2023-09-13T01:55:20.569Z,1002.70
2023-09-13T01:56:20.523Z,1002.71
2023-09-13T01:57:20.495Z,1002.65
2023-09-13T01:58:20.644Z,1002.66
2023-09-13T01:59:20.472Z,1002.69
2023-09-13T02:00:20.465Z,1002.67
2023-09-13T02:01:20.694Z,1002.63
2023-09-13T02:02:20.644Z,1002.69
2023-09-13T02:03:20.452Z,1002.65
2023-09-13T02:04:20.587Z,1002.68
2023-09-13T02:05:20.550Z,1002.71
2023-09-13T02:06:20.421Z,1002.71
2023-09-13T02:07:20.510Z,1002.73
2023-09-13T02:08:20.374Z,1002.71
2023-09-13T02:09:20.383Z,1002.73
2023-09-13T02:10:20.453Z,1002.75
2023-09-13T02:11:20.318Z,1002.78
2023-09-13T02:12:20.412Z,1002.78
2023-09-13T02:13:20.395Z,1002.81
2023-09-13T02:14:20.352Z,1002.85
2023-09-13T02:15:20.289Z,1002.88
2023-09-13T02:16:20.507Z,1002.90
2023-09-13T02:17:20.271Z,1002.91
2023-09-13T02:18:20.288Z,1002.97
2023-09-13T02:19:20.339Z,1003.01
2023-09-13T02:20:20.271Z,1002.96
2023-09-13T02:21:20.280Z,1003.01
2023-09-13T02:22:20.287Z,1003.01
2023-09-13T02:23:20.242Z,1002.99
2023-09-13T02:24:20.214Z,1003.05
2023-09-13T02:25:20.245Z,1003.09
2023-09-13T02:26:20.262Z,1003.08
2023-09-13T02:27:20.201Z,1003.10
2023-09-13T02:28:20.224Z,1003.12
2023-09-13T02:29:20.177Z,1003.09
2023-09-13T02:30:20.177Z,1003.15
2023-09-13T02:31:20.180Z,1003.18
2023-09-13T02:32:20.168Z,1003.17
2023-09-13T02:33:20.136Z,1003.22
2023-09-13T02:34:20.154Z,1003.21
2023-09-13T02:35:20.076Z,1003.24
2023-09-13T02:36:20.096Z,1003.25
2023-09-13T02:37:20.126Z,1003.27
2023-09-13T02:38:20.139Z,1003.31
2023-09-13T02:39:20.062Z,1003.29
2023-09-13T02:40:20.150Z,1003.34
2023-09-13T02:41:20.055Z,1003.33
2023-09-13T02:42:20.019Z,1003.32
2023-09-13T02:43:20.118Z,1003.35
2023-09-13T02:44:20.008Z,1003.34
2023-09-13T02:45:19.965Z,1003.35
2023-09-13T02:46:20.113Z,1003.36
2023-09-13T02:47:20.062Z,1003.41
2023-09-13T02:48:19.969Z,1003.41
2023-09-13T02:49:22.683Z,1003.43
2023-09-13T02:50:20.041Z,1003.40
2023-09-13T02:51:19.962Z,1003.45
2023-09-13T02:52:19.956Z,1003.47
2023-09-13T02:53:19.912Z,1003.51
2023-09-13T02:54:19.907Z,1003.43
2023-09-13T02:55:19.948Z,1003.46
2023-09-13T02:56:19.897Z,1003.47
2023-09-13T02:57:19.877Z,1003.44
2023-09-13T02:58:19.860Z,1003.41
2023-09-13T02:59:19.883Z,1003.46
2023-09-13T03:00:19.845Z,1003.41
2023-09-13T03:01:19.878Z,1003.37
2023-09-13T03:02:19.894Z,1003.38
2023-09-13T03:03:19.874Z,1003.33
2023-09-13T03:04:19.838Z,1003.35
2023-09-13T03:05:19.782Z,1003.32
2023-09-13T03:06:19.772Z,1003.34
2023-09-13T03:07:19.793Z,1003.29
2023-09-13T03:08:19.777Z,1003.27
2023-09-13T03:09:19.845Z,1003.25
2023-09-13T03:10:19.784Z,1003.23
2023-09-13T03:11:19.808Z,1003.17
2023-09-13T03:12:19.736Z,1003.13
2023-09-13T03:13:19.764Z,1003.12
2023-09-13T03:14:19.686Z,1003.09
2023-09-13T03:15:19.689Z,1003.03
2023-09-13T03:16:19.830Z,1003.07
2023-09-13T03:17:19.714Z,1003.08
2023-09-13T03:18:19.647Z,1003.04
2023-09-13T03:19:19.679Z,1003.04
2023-09-13T03:20:19.643Z,1003.02
2023-09-13T03:21:19.635Z,1003.04
2023-09-13T03:22:19.617Z,1003.01
2023-09-13T03:23:19.590Z,1003.02
2023-09-13T03:24:19.552Z,1003.00
2023-09-13T03:25:19.625Z,1003.01
2023-09-13T03:26:19.543Z,1003.03
2023-09-13T03:27:29.602Z,1002.98
2023-09-13T03:28:19.584Z,1003.00
2023-09-13T03:29:19.550Z,1002.97
2023-09-13T03:30:19.542Z,1002.97
2023-09-13T03:31:19.673Z,1002.92
2023-09-13T03:32:19.562Z,1002.92
2023-09-13T03:33:19.497Z,1002.90
2023-09-13T03:34:19.535Z,1002.89
2023-09-13T03:35:19.697Z,1002.90
2023-09-13T03:36:19.443Z,1002.86
2023-09-13T03:37:19.434Z,1002.86
2023-09-13T03:38:19.626Z,1002.89
2023-09-13T03:39:19.435Z,1002.85
2023-09-13T03:40:19.729Z,1002.85
2023-09-13T03:41:19.375Z,1002.86
2023-09-13T03:42:19.455Z,1002.86
2023-09-13T03:43:19.364Z,1002.83
2023-09-13T03:44:19.453Z,1002.87
2023-09-13T03:45:19.400Z,1002.86
2023-09-13T03:46:19.487Z,1002.81
2023-09-13T03:47:19.405Z,1002.85
2023-09-13T03:48:19.517Z,1002.84
2023-09-13T03:49:19.352Z,1002.85
2023-09-13T03:50:19.403Z,1002.86
2023-09-13T03:51:19.310Z,1002.89
2023-09-13T03:52:19.349Z,1002.88
2023-09-13T03:53:19.270Z,1002.84
2023-09-13T03:54:19.301Z,1002.83
2023-09-13T03:55:19.336Z,1002.82
2023-09-13T03:56:19.241Z,1002.82
2023-09-13T03:57:19.214Z,1002.82
2023-09-13T03:58:19.278Z,1002.83
2023-09-13T03:59:19.415Z,1002.80
2023-09-13T04:00:19.189Z,1002.80
2023-09-13T04:01:19.362Z,1002.76
2023-09-13T04:02:19.231Z,1002.75
2023-09-13T04:03:19.187Z,1002.74
2023-09-13T04:04:19.354Z,1002.73
2023-09-13T04:05:19.329Z,1002.72
2023-09-13T04:06:19.297Z,1002.78
2023-09-13T04:07:19.726Z,1002.78
2023-09-13T04:08:19.133Z,1002.82
2023-09-13T04:09:19.122Z,1002.84
2023-09-13T04:10:19.177Z,1002.85
2023-09-13T04:11:19.137Z,1002.86
2023-09-13T04:12:19.056Z,1002.84
2023-09-13T04:13:19.123Z,1002.86
2023-09-13T04:14:19.153Z,1002.87
2023-09-13T04:15:19.068Z,1002.88
2023-09-13T04:16:19.179Z,1002.94
2023-09-13T04:17:19.156Z,1002.93
2023-09-13T04:18:19.330Z,1002.93
2023-09-13T04:19:19.096Z,1002.88
2023-09-13T04:20:19.463Z,1002.87
2023-09-13T04:21:18.976Z,1002.83
2023-09-13T04:22:19.079Z,1002.87
2023-09-13T04:23:18.963Z,1002.83
2023-09-13T04:24:18.924Z,1002.82
2023-09-13T04:25:18.975Z,1002.79
2023-09-13T04:26:18.896Z,1002.77
2023-09-13T04:27:18.895Z,1002.78
2023-09-13T04:28:19.013Z,1002.76
2023-09-13T04:29:19.242Z,1002.75
2023-09-13T04:30:18.842Z,1002.76
2023-09-13T04:31:19.109Z,1002.76
2023-09-13T04:32:18.909Z,1002.77
2023-09-13T04:33:19.129Z,1002.80
2023-09-13T04:34:18.903Z,1002.78
2023-09-13T04:35:19.827Z,1002.80
2023-09-13T04:36:18.850Z,1002.88
2023-09-13T04:37:18.961Z,1002.90
2023-09-13T04:38:18.975Z,1002.94
2023-09-13T04:39:18.768Z,1002.96
2023-09-13T04:40:18.793Z,1002.97
2023-09-13T04:41:18.809Z,1002.95
2023-09-13T04:42:18.830Z,1002.92
2023-09-13T04:43:18.771Z,1002.93
2023-09-13T04:44:18.679Z,1003.00
2023-09-13T04:45:18.706Z,1003.01
2023-09-13T04:46:18.778Z,1003.02
2023-09-13T04:47:18.688Z,1003.08
2023-09-13T04:48:18.632Z,1003.06
2023-09-13T04:49:18.671Z,1003.11
2023-09-13T04:50:18.599Z,1003.09
2023-09-13T04:51:18.882Z,1003.10
2023-09-13T04:52:18.636Z,1003.09
2023-09-13T04:53:18.608Z,1003.11
2023-09-13T04:54:18.584Z,1003.06
2023-09-13T04:55:19.289Z,1003.09
2023-09-13T04:56:18.575Z,1003.07
2023-09-13T04:57:18.568Z,1003.07
2023-09-13T04:58:18.593Z,1003.09
2023-09-13T04:59:18.552Z,1003.06
2023-09-13T05:00:18.546Z,1003.10
2023-09-13T05:01:18.598Z,1003.13
2023-09-13T05:02:18.513Z,1003.15
2023-09-13T05:03:18.586Z,1003.18
2023-09-13T05:04:18.599Z,1003.16
2023-09-13T05:05:18.463Z,1003.17
2023-09-13T05:06:18.451Z,1003.17
2023-09-13T05:07:18.467Z,1003.19
2023-09-13T05:08:18.453Z,1003.20
2023-09-13T05:09:18.425Z,1003.24
2023-09-13T05:10:18.451Z,1003.23
2023-09-13T05:11:18.453Z,1003.21
2023-09-13T05:12:18.432Z,1003.22
2023-09-13T05:13:18.510Z,1003.20
2023-09-13T05:14:18.396Z,1003.19
2023-09-13T05:15:18.354Z,1003.21
2023-09-13T05:16:18.413Z,1003.23
2023-09-13T05:17:18.378Z,1003.20
2023-09-13T05:18:18.362Z,1003.22
2023-09-13T05:19:18.339Z,1003.24
2023-09-13T05:20:18.317Z,1003.27
2023-09-13T05:21:18.282Z,1003.30
2023-09-13T05:22:18.376Z,1003.28
2023-09-13T05:23:18.264Z,1003.36
2023-09-13T05:24:18.257Z,1003.35
2023-09-13T05:25:18.286Z,1003.37
2023-09-13T05:26:18.237Z,1003.35
2023-09-13T05:27:18.312Z,1003.35
2023-09-13T05:28:18.314Z,1003.34
2023-09-13T05:29:18.244Z,1003.35
2023-09-13T05:30:18.197Z,1003.31
2023-09-13T05:31:18.218Z,1003.29
2023-09-13T05:32:18.201Z,1003.28
2023-09-13T05:33:18.249Z,1003.30
2023-09-13T05:34:18.203Z,1003.31
2023-09-13T05:35:18.147Z,1003.31
2023-09-13T05:36:18.128Z,1003.33
2023-09-13T05:37:18.191Z,1003.26
2023-09-13T05:38:18.119Z,1003.26
2023-09-13T05:39:18.143Z,1003.27
2023-09-13T05:40:19.096Z,1003.30
2023-09-13T05:41:18.087Z,1003.32
2023-09-13T05:42:18.027Z,1003.34
2023-09-13T05:43:18.070Z,1003.39
2023-09-13T05:44:18.141Z,1003.42
2023-09-13T05:45:18.037Z,1003.41
2023-09-13T05:46:18.089Z,1003.39
2023-09-13T05:47:18.014Z,1003.38
2023-09-13T05:48:18.011Z,1003.37
2023-09-13T05:49:18.034Z,1003.37
2023-09-13T05:50:17.971Z,1003.39
2023-09-13T05:51:17.966Z,1003.43
2023-09-13T05:52:17.967Z,1003.43
2023-09-13T05:53:17.941Z,1003.43
2023-09-13T05:54:17.978Z,1003.46
2023-09-13T05:55:17.998Z,1003.50
2023-09-13T05:56:17.909Z,1003.53
2023-09-13T05:57:17.910Z,1003.52
2023-09-13T05:58:17.863Z,1003.59
2023-09-13T05:59:17.882Z,1003.57
2023-09-13T06:00:17.834Z,1003.62
2023-09-13T06:01:17.894Z,1003.62
2023-09-13T06:02:17.901Z,1003.67
2023-09-13T06:03:17.945Z,1003.69
2023-09-13T06:04:17.913Z,1003.72
2023-09-13T06:05:17.811Z,1003.73
2023-09-13T06:06:17.766Z,1003.74
2023-09-13T06:07:17.839Z,1003.73
2023-09-13T06:08:17.786Z,1003.75
2023-09-13T06:09:17.736Z,1003.76
2023-09-13T06:10:17.807Z,1003.81
2023-09-13T06:11:17.728Z,1003.82
2023-09-13T06:12:17.716Z,1003.84
2023-09-13T06:13:17.760Z,1003.79
2023-09-13T06:14:17.744Z,1003.81
2023-09-13T06:15:17.738Z,1003.85
2023-09-13T06:16:17.860Z,1003.83
2023-09-13T06:17:17.719Z,1003.85
2023-09-13T06:18:17.701Z,1003.90
2023-09-13T06:19:17.714Z,1003.85
2023-09-13T06:20:17.675Z,1003.91
2023-09-13T06:21:17.660Z,1003.92
2023-09-13T06:22:17.650Z,1003.89
2023-09-13T06:23:17.596Z,1003.92
2023-09-13T06:24:17.577Z,1003.93
2023-09-13T06:25:17.590Z,1003.92
2023-09-13T06:26:17.539Z,1003.90
2023-09-13T06:27:17.560Z,1003.94
2023-09-13T06:28:17.618Z,1003.97
2023-09-13T06:29:17.604Z,1003.96
2023-09-13T06:30:17.504Z,1003.95
2023-09-13T06:31:30.908Z,1003.96
2023-09-13T06:32:36.982Z,1003.96
2023-09-13T06:33:37.263Z,1003.98
2023-09-13T06:34:25.121Z,1003.97
2023-09-13T06:35:18.583Z,1004.01
2023-09-13T06:36:18.133Z,1003.97
2023-09-13T06:37:17.688Z,1004.03
2023-09-13T06:38:17.617Z,1004.05
2023-09-13T06:39:17.481Z,1004.03
2023-09-13T06:40:17.630Z,1004.04
2023-09-13T06:41:18.034Z,1004.04
2023-09-13T06:42:27.984Z,1003.97
2023-09-13T06:43:31.033Z,1003.98
2023-09-13T06:44:28.731Z,1004.00
2023-09-13T06:45:26.900Z,1004.01
2023-09-13T06:46:18.631Z,1004.01
2023-09-13T06:47:18.112Z,1004.00
2023-09-13T06:48:17.600Z,1003.98
2023-09-13T06:49:18.032Z,1003.99
2023-09-13T06:50:18.424Z,1004.02
2023-09-13T06:52:19.311Z,1004.01
2023-09-13T06:53:33.275Z,1004.04
2023-09-13T06:54:20.947Z,1004.04
2023-09-13T06:55:19.110Z,1004.05
2023-09-13T06:56:18.024Z,1004.09
2023-09-13T06:57:19.987Z,1004.09
2023-09-13T06:58:20.357Z,1004.12
2023-09-13T06:59:18.036Z,1004.09
2023-09-13T07:00:24.673Z,1004.08
2023-09-13T07:02:31.123Z,1004.04
2023-09-13T07:03:19.021Z,1004.04
2023-09-13T07:04:22.104Z,1004.02
2023-09-13T07:06:17.207Z,1004.06
2023-09-13T07:07:17.251Z,1004.10
2023-09-13T07:08:17.171Z,1004.19
2023-09-13T07:09:17.078Z,1004.20
2023-09-13T07:10:17.113Z,1004.17
2023-09-13T07:11:17.120Z,1004.19
2023-09-13T07:12:17.072Z,1004.20
2023-09-13T07:13:17.069Z,1004.22
2023-09-13T07:14:17.027Z,1004.17
2023-09-13T07:15:17.040Z,1004.20
2023-09-13T07:16:17.171Z,1004.26
2023-09-13T07:17:17.081Z,1004.27
2023-09-13T07:18:17.076Z,1004.31
2023-09-13T07:19:16.991Z,1004.32
2023-09-13T07:20:16.939Z,1004.38
2023-09-13T07:21:16.972Z,1004.35
2023-09-13T07:22:16.936Z,1004.40
2023-09-13T07:23:16.986Z,1004.36
2023-09-13T07:24:16.944Z,1004.45
2023-09-13T07:25:16.940Z,1004.42
2023-09-13T07:26:16.930Z,1004.45
2023-09-13T07:27:16.902Z,1004.39
2023-09-13T07:28:16.931Z,1004.40
2023-09-13T07:29:16.902Z,1004.43
2023-09-13T07:30:16.896Z,1004.47
2023-09-13T07:31:16.934Z,1004.44
2023-09-13T07:32:16.865Z,1004.45
2023-09-13T07:33:16.855Z,1004.48
2023-09-13T07:34:30.901Z,1004.52
2023-09-13T07:35:17.808Z,1004.51
2023-09-13T07:36:16.798Z,1004.53
2023-09-13T07:37:16.841Z,1004.49
2023-09-13T07:38:16.758Z,1004.51
2023-09-13T07:39:16.790Z,1004.53
2023-09-13T07:40:16.749Z,1004.56
2023-09-13T07:41:16.785Z,1004.58
2023-09-13T07:42:16.748Z,1004.54
2023-09-13T07:43:16.721Z,1004.58
2023-09-13T07:44:16.778Z,1004.59
2023-09-13T07:45:16.712Z,1004.57
2023-09-13T07:46:16.754Z,1004.63
2023-09-13T07:47:16.825Z,1004.61
2023-09-13T07:48:16.716Z,1004.64
2023-09-13T07:49:16.661Z,1004.66
2023-09-13T07:50:16.631Z,1004.66
2023-09-13T07:51:16.631Z,1004.69
2023-09-13T07:52:16.629Z,1004.70
2023-09-13T07:53:16.640Z,1004.70
2023-09-13T07:54:17.267Z,1004.67
2023-09-13T07:55:20.555Z,1004.66
2023-09-13T07:56:16.578Z,1004.65
2023-09-13T07:57:16.558Z,1004.70
2023-09-13T07:58:16.556Z,1004.74
2023-09-13T07:59:16.707Z,1004.78
2023-09-13T08:09:26.210Z,1004.84
2023-09-13T08:10:23.483Z,1004.81
2023-09-13T08:11:25.139Z,1004.83
2023-09-13T08:12:23.535Z,1004.94
2023-09-13T08:27:25.205Z,1004.99
2023-09-13T08:28:25.023Z,1004.93
2023-09-13T08:29:25.006Z,1005.01
2023-09-13T08:30:25.024Z,1004.98
2023-09-13T08:31:25.192Z,1004.95
2023-09-13T08:32:25.126Z,1004.94
2023-09-13T08:33:24.967Z,1004.96
2023-09-13T08:34:24.949Z,1004.91
2023-09-13T08:35:25.039Z,1004.97
2023-09-13T08:36:24.927Z,1004.95
2023-09-13T08:37:24.921Z,1005.03
2023-09-13T08:38:24.911Z,1005.07
2023-09-13T08:39:24.897Z,1005.14
2023-09-13T08:40:24.882Z,1005.08
2023-09-13T08:41:24.882Z,1005.21
2023-09-13T08:42:24.854Z,1005.19
2023-09-13T08:43:24.852Z,1005.17
2023-09-13T08:44:24.836Z,1005.17
2023-09-13T08:45:24.848Z,1005.27
2023-09-13T08:46:24.856Z,1005.23
2023-09-13T08:47:24.961Z,1005.25
2023-09-13T08:48:24.839Z,1005.26
2023-09-13T08:49:24.806Z,1005.30
2023-09-13T08:50:24.771Z,1005.23
2023-09-13T08:51:24.783Z,1005.29
2023-09-13T08:52:24.746Z,1005.42
2023-09-13T08:53:24.757Z,1005.31
2023-09-13T08:54:24.740Z,1005.28
2023-09-13T08:55:24.796Z,1005.28
2023-09-13T08:56:24.797Z,1005.36
2023-09-13T08:57:24.708Z,1005.38
2023-09-13T08:58:24.727Z,1005.40
2023-09-13T08:59:24.684Z,1005.33
2023-09-13T09:00:24.704Z,1005.32
2023-09-13T09:01:24.681Z,1005.32
2023-09-13T09:27:02.519Z,1005.52
2023-09-13T09:33:55.912Z,1005.47
2023-09-13T09:34:53.117Z,1005.46
2023-09-13T09:35:54.787Z,1005.52
2023-09-13T09:36:53.065Z,1005.48
2023-09-13T09:37:53.045Z,1005.52
2023-09-13T09:38:53.036Z,1005.52
2023-09-13T09:39:53.026Z,1005.47
2023-09-13T09:40:53.123Z,1005.50
2023-09-13T09:41:52.994Z,1005.55
2023-09-13T09:42:52.990Z,1005.53
2023-09-13T09:43:53.049Z,1005.65
2023-09-13T09:44:52.982Z,1005.63
2023-09-13T09:45:52.992Z,1005.56
2023-09-13T09:46:53.039Z,1005.69
2023-09-13T09:47:52.968Z,1005.68
2023-09-13T09:48:52.939Z,1005.71
2023-09-13T09:49:52.921Z,1005.65
2023-09-13T09:50:52.924Z,1005.76
2023-09-13T09:51:52.887Z,1005.79
2023-09-13T09:52:52.938Z,1005.83
2023-09-13T09:53:52.870Z,1005.97
2023-09-13T09:54:52.857Z,1005.94
2023-09-13T09:55:52.876Z,1005.95
2023-09-13T09:56:52.862Z,1006.01
2023-09-13T09:57:52.810Z,1006.01
2023-09-13T09:58:52.945Z,1005.87
2023-09-13T09:59:52.866Z,1006.01
2023-09-13T10:00:52.897Z,1006.01
2023-09-13T10:01:52.804Z,1006.06
2023-09-13T10:02:53.059Z,1005.88
2023-09-13T10:03:52.814Z,1006.07
2023-09-13T10:04:52.842Z,1006.03
2023-09-13T10:05:52.746Z,1006.10
2023-09-13T10:06:52.757Z,1006.19
2023-09-13T10:07:52.788Z,1006.04
2023-09-13T10:08:53.055Z,1006.31
2023-09-13T10:09:52.716Z,1006.31
2023-09-13T10:10:52.763Z,1006.30
2023-09-13T10:11:52.676Z,1006.32
2023-09-13T10:12:52.681Z,1006.38
2023-09-13T10:13:52.684Z,1006.44
2023-09-13T10:14:52.655Z,1006.50
2023-09-13T10:15:52.700Z,1006.59
2023-09-13T10:16:52.755Z,1006.56
2023-09-13T10:17:52.685Z,1006.61
2023-09-13T10:18:52.633Z,1006.61
2023-09-13T10:19:52.609Z,1006.63
2023-09-13T10:20:55.257Z,1006.68
2023-09-13T10:21:52.549Z,1006.77
2023-09-13T10:22:52.612Z,1006.81
2023-09-13T10:23:52.548Z,1006.82
2023-09-13T10:24:52.534Z,1006.81
2023-09-13T10:25:52.593Z,1006.91
2023-09-13T10:26:52.506Z,1006.90
2023-09-13T10:27:52.500Z,1006.87
2023-09-13T10:28:52.609Z,1006.85
2023-09-13T10:29:52.480Z,1006.94
2023-09-13T10:30:52.496Z,1006.95
2023-09-13T10:31:57.696Z,1006.99
2023-09-13T10:34:03.608Z,1007.09
2023-09-13T10:35:03.850Z,1006.97
2023-09-13T10:36:03.747Z,1007.14
2023-09-13T10:37:03.530Z,1007.18
2023-09-13T10:38:03.824Z,1007.23
2023-09-13T10:39:03.777Z,1007.19
2023-09-13T10:40:03.613Z,1007.28
2023-09-13T10:41:03.993Z,1007.34
2023-09-13T10:42:03.513Z,1007.29
2023-09-13T10:43:03.520Z,1007.25
2023-09-13T10:44:03.544Z,1007.29
2023-09-13T10:45:03.450Z,1007.29
2023-09-13T10:46:03.881Z,1007.33
2023-09-13T10:47:03.519Z,1007.35
2023-09-13T10:48:03.509Z,1007.33
2023-09-13T10:49:03.404Z,1007.31
2023-09-13T10:50:03.504Z,1007.40
2023-09-13T10:51:03.396Z,1007.36
2023-09-13T10:52:03.758Z,1007.39
2023-09-13T10:53:03.415Z,1007.36
2023-09-13T10:54:03.375Z,1007.40
2023-09-13T10:55:03.338Z,1007.42
2023-09-13T10:56:03.419Z,1007.40
2023-09-13T10:57:03.321Z,1007.41
2023-09-13T10:58:03.321Z,1007.48
2023-09-13T10:59:03.335Z,1007.44
2023-09-13T11:00:03.332Z,1007.40
2023-09-13T11:01:03.345Z,1007.42
2023-09-13T11:02:03.333Z,1007.42
2023-09-13T11:03:03.338Z,1007.41
2023-09-13T11:04:03.305Z,1007.43
2023-09-13T11:05:03.260Z,1007.45
2023-09-13T11:06:03.281Z,1007.46
2023-09-13T11:07:03.203Z,1007.48
2023-09-13T11:08:03.236Z,1007.44
2023-09-13T11:09:03.184Z,1007.47
2023-09-13T11:10:03.196Z,1007.49
2023-09-13T11:11:03.193Z,1007.41
2023-09-13T11:12:03.185Z,1007.44
2023-09-13T11:13:03.242Z,1007.45
2023-09-13T11:14:03.190Z,1007.44
2023-09-13T11:15:03.149Z,1007.41
2023-09-13T11:16:03.126Z,1007.42
2023-09-13T11:17:03.181Z,1007.40
2023-09-13T11:18:03.107Z,1007.43
2023-09-13T11:19:03.078Z,1007.47
2023-09-13T11:20:03.113Z,1007.48
2023-09-13T11:21:03.090Z,1007.49
2023-09-13T11:22:03.077Z,1007.57
2023-09-13T11:23:03.098Z,1007.58
2023-09-13T11:24:04.494Z,1007.61
2023-09-13T11:25:04.444Z,1007.63
2023-09-13T11:26:04.470Z,1007.63
2023-09-13T11:27:03.007Z,1007.69
2023-09-13T11:28:02.981Z,1007.68
2023-09-13T11:29:02.991Z,1007.75
2023-09-13T11:30:02.972Z,1007.71
2023-09-13T11:31:02.985Z,1007.74
2023-09-13T11:32:03.169Z,1007.76
2023-09-13T11:33:02.937Z,1007.79
2023-09-13T11:34:02.924Z,1007.80
2023-09-13T11:35:03.024Z,1007.85
2023-09-13T11:36:03.109Z,1007.92
2023-09-13T11:37:02.975Z,1007.96
2023-09-13T11:45:34.923Z,1008.12
2023-09-13T11:46:05.140Z,1008.13
2023-09-13T11:47:04.229Z,1008.14
2023-09-13T11:48:04.428Z,1008.16
2023-09-13T11:49:05.488Z,1008.16
2023-09-13T11:50:12.914Z,1008.22
2023-09-13T11:51:20.399Z,1008.25
2023-09-13T11:52:22.815Z,1008.29
2023-09-13T11:53:05.155Z,1008.24
2023-09-13T11:54:04.506Z,1008.26
2023-09-13T11:55:07.374Z,1008.27
2023-09-13T11:56:12.836Z,1008.34
2023-09-13T11:57:21.980Z,1008.26
2023-09-13T11:58:12.484Z,1008.35
2023-09-13T11:59:06.158Z,1008.44
2023-09-13T12:00:04.143Z,1008.37
2023-09-13T12:01:05.137Z,1008.40
2023-09-13T12:02:04.555Z,1008.41
2023-09-13T12:03:04.452Z,1008.37
2023-09-13T12:05:14.677Z,1008.43
2023-09-13T12:06:27.117Z,1008.44
2023-09-13T12:07:07.406Z,1008.46
2023-09-13T12:08:04.805Z,1008.46
2023-09-13T12:09:05.308Z,1008.49
2023-09-13T12:10:05.873Z,1008.53
2023-09-13T12:11:04.382Z,1008.42
2023-09-13T12:12:10.093Z,1008.47
2023-09-13T12:14:11.718Z,1008.41
2023-09-13T12:15:07.451Z,1008.44
2023-09-13T12:17:03.417Z,1008.43
2023-09-13T12:18:03.522Z,1008.45
2023-09-13T12:19:03.362Z,1008.49
2023-09-13T12:20:03.318Z,1008.50
2023-09-13T12:21:03.316Z,1008.48
2023-09-13T12:22:03.297Z,1008.58
2023-09-13T12:23:03.340Z,1008.61
2023-09-13T12:24:04.211Z,1008.57
2023-09-13T12:25:03.288Z,1008.61
2023-09-13T12:26:03.267Z,1008.63
2023-09-13T12:27:03.244Z,1008.65
2023-09-13T12:28:03.309Z,1008.64
2023-09-13T12:29:03.249Z,1008.67
2023-09-13T12:30:03.235Z,1008.66
2023-09-13T12:31:03.517Z,1008.71
2023-09-13T12:32:03.173Z,1008.69
2023-09-13T12:33:03.212Z,1008.71
2023-09-13T12:34:03.177Z,1008.72
2023-09-13T12:35:03.170Z,1008.71
2023-09-13T12:36:03.190Z,1008.73
2023-09-13T12:37:03.281Z,1008.76
2023-09-13T12:38:03.242Z,1008.82
2023-09-13T12:39:03.162Z,1008.83
2023-09-13T12:40:03.125Z,1008.83
2023-09-13T12:41:03.113Z,1008.86
2023-09-13T12:42:03.071Z,1008.83
2023-09-13T12:43:03.123Z,1008.87
2023-09-13T12:44:03.276Z,1008.85
2023-09-13T12:45:05.257Z,1008.92
2023-09-13T12:46:03.069Z,1008.90
2023-09-13T12:47:03.064Z,1008.96
2023-09-13T12:48:03.041Z,1008.95
2023-09-13T12:49:03.042Z,1008.98
2023-09-13T12:50:05.914Z,1008.94
2023-09-13T12:51:02.986Z,1008.97
2023-09-13T12:52:02.988Z,1008.95
2023-09-13T12:53:02.983Z,1009.00
2023-09-13T12:54:02.967Z,1009.03
2023-09-13T12:55:02.949Z,1009.01
2023-09-13T12:56:02.965Z,1008.99
2023-09-13T12:57:02.934Z,1009.03
2023-09-13T12:58:02.970Z,1009.03
2023-09-13T12:59:02.902Z,1009.13
2023-09-13T13:00:02.892Z,1009.14
2023-09-13T13:01:02.872Z,1009.15
2023-09-13T13:02:02.869Z,1009.19
2023-09-13T13:03:02.951Z,1009.16
2023-09-13T13:04:03.104Z,1009.20
2023-09-13T13:05:02.853Z,1009.17
2023-09-13T13:06:02.870Z,1009.23
2023-09-13T13:07:02.809Z,1009.22
2023-09-13T13:08:02.923Z,1009.30
2023-09-13T13:09:02.845Z,1009.28
2023-09-13T13:10:02.788Z,1009.30
2023-09-13T13:11:02.764Z,1009.36
2023-09-13T13:12:02.771Z,1009.40
2023-09-13T13:13:02.734Z,1009.38